sensor_id;sensor_type;location;lat;lon;timestamp;P1;durP1;ratioP1;P2;durP2;ratioP2
21032;SDS011;10675;47.976;7.824;2023-11-19T00:01:07;0.40;;;0.37;;
21032;SDS011;10675;47.976;7.824;2023-11-19T00:03:32;2.47;;;0.80;;
21032;SDS011;10675;47.976;7.824;2023-11-19T00:05:58;1.80;;;0.40;;
21032;SDS011;10675;47.976;7.824;2023-11-19T00:08:24;0.50;;;0.50;;
21032;SDS011;10675;47.976;7.824;2023-11-19T00:10:50;0.90;;;0.40;;
21032;SDS011;10675;47.976;7.824;2023-11-19T00:13:16;0.73;;;0.50;;
21032;SDS011;10675;47.976;7.824;2023-11-19T00:15:41;1.80;;;0.60;;
21032;SDS011;10675;47.976;7.824;2023-11-19T00:18:07;4.37;;;0.60;;
21032;SDS011;10675;47.976;7.824;2023-11-19T00:20:33;0.83;;;0.63;;
21032;SDS011;10675;47.976;7.824;2023-11-19T00:22:58;1.30;;;0.47;;
21032;SDS011;10675;47.976;7.824;2023-11-19T00:25:23;0.50;;;0.50;;
21032;SDS011;10675;47.976;7.824;2023-11-19T00:27:50;0.77;;;0.60;;
21032;SDS011;10675;47.976;7.824;2023-11-19T00:30:18;0.93;;;0.60;;
21032;SDS011;10675;47.976;7.824;2023-11-19T00:32:43;2.90;;;0.80;;
21032;SDS011;10675;47.976;7.824;2023-11-19T00:35:10;0.80;;;0.60;;
21032;SDS011;10675;47.976;7.824;2023-11-19T00:37:35;0.40;;;0.40;;
21032;SDS011;10675;47.976;7.824;2023-11-19T00:40:01;1.07;;;0.50;;
21032;SDS011;10675;47.976;7.824;2023-11-19T00:42:30;1.03;;;0.63;;
21032;SDS011;10675;47.976;7.824;2023-11-19T00:44:55;0.60;;;0.60;;
21032;SDS011;10675;47.976;7.824;2023-11-19T00:47:21;0.50;;;0.50;;
21032;SDS011;10675;47.976;7.824;2023-11-19T00:49:47;0.60;;;0.60;;
21032;SDS011;10675;47.976;7.824;2023-11-19T00:52:18;0.63;;;0.63;;
21032;SDS011;10675;47.976;7.824;2023-11-19T00:54:44;0.40;;;0.40;;
21032;SDS011;10675;47.976;7.824;2023-11-19T00:57:09;2.93;;;0.57;;
21032;SDS011;10675;47.976;7.824;2023-11-19T00:59:35;2.10;;;0.60;;
21032;SDS011;10675;47.976;7.824;2023-11-19T01:02:00;1.53;;;0.60;;
21032;SDS011;10675;47.976;7.824;2023-11-19T01:04:29;1.17;;;0.83;;
21032;SDS011;10675;47.976;7.824;2023-11-19T01:06:54;0.87;;;0.50;;
21032;SDS011;10675;47.976;7.824;2023-11-19T01:09:20;2.73;;;0.60;;
21032;SDS011;10675;47.976;7.824;2023-11-19T01:11:45;0.53;;;0.50;;
21032;SDS011;10675;47.976;7.824;2023-11-19T01:14:11;0.60;;;0.60;;
21032;SDS011;10675;47.976;7.824;2023-11-19T01:16:36;1.20;;;0.70;;
21032;SDS011;10675;47.976;7.824;2023-11-19T01:19:02;0.77;;;0.53;;
21032;SDS011;10675;47.976;7.824;2023-11-19T01:21:29;0.50;;;0.50;;
21032;SDS011;10675;47.976;7.824;2023-11-19T01:23:55;0.77;;;0.60;;
21032;SDS011;10675;47.976;7.824;2023-11-19T01:26:22;0.63;;;0.63;;
21032;SDS011;10675;47.976;7.824;2023-11-19T01:28:48;5.73;;;0.60;;
21032;SDS011;10675;47.976;7.824;2023-11-19T01:31:16;5.03;;;0.77;;
21032;SDS011;10675;47.976;7.824;2023-11-19T01:33:42;2.00;;;0.60;;
21032;SDS011;10675;47.976;7.824;2023-11-19T01:36:08;1.40;;;0.53;;
21032;SDS011;10675;47.976;7.824;2023-11-19T01:38:34;1.43;;;0.50;;
21032;SDS011;10675;47.976;7.824;2023-11-19T01:41:01;0.50;;;0.50;;
21032;SDS011;10675;47.976;7.824;2023-11-19T01:43:37;0.60;;;0.60;;
21032;SDS011;10675;47.976;7.824;2023-11-19T01:46:06;0.47;;;0.40;;
21032;SDS011;10675;47.976;7.824;2023-11-19T01:48:34;0.30;;;0.30;;
21032;SDS011;10675;47.976;7.824;2023-11-19T01:51:01;1.30;;;0.40;;
21032;SDS011;10675;47.976;7.824;2023-11-19T01:53:29;0.40;;;0.40;;
21032;SDS011;10675;47.976;7.824;2023-11-19T01:55:55;0.53;;;0.50;;
21032;SDS011;10675;47.976;7.824;2023-11-19T01:58:21;0.97;;;0.53;;
21032;SDS011;10675;47.976;7.824;2023-11-19T02:00:48;1.47;;;0.83;;
21032;SDS011;10675;47.976;7.824;2023-11-19T02:03:14;2.00;;;0.90;;
21032;SDS011;10675;47.976;7.824;2023-11-19T02:05:39;0.50;;;0.50;;
21032;SDS011;10675;47.976;7.824;2023-11-19T02:08:05;0.80;;;0.80;;
21032;SDS011;10675;47.976;7.824;2023-11-19T02:10:31;0.53;;;0.53;;
21032;SDS011;10675;47.976;7.824;2023-11-19T02:12:57;1.50;;;0.60;;
21032;SDS011;10675;47.976;7.824;2023-11-19T02:15:23;0.73;;;0.70;;
21032;SDS011;10675;47.976;7.824;2023-11-19T02:17:49;0.97;;;0.73;;
21032;SDS011;10675;47.976;7.824;2023-11-19T02:20:16;0.60;;;0.60;;
21032;SDS011;10675;47.976;7.824;2023-11-19T02:22:44;0.67;;;0.67;;
21032;SDS011;10675;47.976;7.824;2023-11-19T02:25:12;1.03;;;0.83;;
21032;SDS011;10675;47.976;7.824;2023-11-19T02:27:57;0.80;;;0.80;;
21032;SDS011;10675;47.976;7.824;2023-11-19T02:30:24;0.77;;;0.73;;
21032;SDS011;10675;47.976;7.824;2023-11-19T02:32:57;1.00;;;0.77;;
21032;SDS011;10675;47.976;7.824;2023-11-19T02:35:26;1.80;;;1.13;;
21032;SDS011;10675;47.976;7.824;2023-11-19T02:37:56;1.63;;;0.90;;
21032;SDS011;10675;47.976;7.824;2023-11-19T02:40:22;0.97;;;0.93;;
21032;SDS011;10675;47.976;7.824;2023-11-19T02:42:49;1.20;;;0.90;;
21032;SDS011;10675;47.976;7.824;2023-11-19T02:45:15;1.47;;;1.13;;
21032;SDS011;10675;47.976;7.824;2023-11-19T02:47:41;0.70;;;0.70;;
21032;SDS011;10675;47.976;7.824;2023-11-19T02:50:07;1.77;;;0.90;;
21032;SDS011;10675;47.976;7.824;2023-11-19T02:52:39;0.77;;;0.70;;
21032;SDS011;10675;47.976;7.824;2023-11-19T02:55:11;0.50;;;0.50;;
21032;SDS011;10675;47.976;7.824;2023-11-19T02:57:41;0.60;;;0.60;;
21032;SDS011;10675;47.976;7.824;2023-11-19T03:00:20;0.57;;;0.57;;
21032;SDS011;10675;47.976;7.824;2023-11-19T03:02:49;0.77;;;0.77;;
21032;SDS011;10675;47.976;7.824;2023-11-19T03:05:25;1.10;;;0.70;;
21032;SDS011;10675;47.976;7.824;2023-11-19T03:07:52;1.30;;;0.80;;
21032;SDS011;10675;47.976;7.824;2023-11-19T03:10:17;1.43;;;0.60;;
21032;SDS011;10675;47.976;7.824;2023-11-19T03:12:44;0.50;;;0.50;;
21032;SDS011;10675;47.976;7.824;2023-11-19T03:15:10;0.73;;;0.73;;
21032;SDS011;10675;47.976;7.824;2023-11-19T03:17:40;0.80;;;0.80;;
21032;SDS011;10675;47.976;7.824;2023-11-19T03:20:07;0.70;;;0.70;;
21032;SDS011;10675;47.976;7.824;2023-11-19T03:22:39;0.80;;;0.80;;
21032;SDS011;10675;47.976;7.824;2023-11-19T03:25:06;1.50;;;0.90;;
21032;SDS011;10675;47.976;7.824;2023-11-19T03:27:34;1.57;;;0.70;;
21032;SDS011;10675;47.976;7.824;2023-11-19T03:30:01;0.70;;;0.70;;
21032;SDS011;10675;47.976;7.824;2023-11-19T03:32:29;1.97;;;0.70;;
21032;SDS011;10675;47.976;7.824;2023-11-19T03:34:55;0.70;;;0.70;;
21032;SDS011;10675;47.976;7.824;2023-11-19T03:37:21;0.60;;;0.60;;
21032;SDS011;10675;47.976;7.824;2023-11-19T03:39:46;0.60;;;0.60;;
21032;SDS011;10675;47.976;7.824;2023-11-19T03:42:12;0.50;;;0.50;;
21032;SDS011;10675;47.976;7.824;2023-11-19T03:44:38;1.00;;;0.83;;
21032;SDS011;10675;47.976;7.824;2023-11-19T03:47:04;1.13;;;0.93;;
21032;SDS011;10675;47.976;7.824;2023-11-19T03:49:29;0.60;;;0.60;;
21032;SDS011;10675;47.976;7.824;2023-11-19T03:51:55;2.30;;;0.53;;
21032;SDS011;10675;47.976;7.824;2023-11-19T03:54:20;0.63;;;0.63;;
21032;SDS011;10675;47.976;7.824;2023-11-19T03:56:48;1.43;;;0.60;;
21032;SDS011;10675;47.976;7.824;2023-11-19T03:59:13;0.77;;;0.77;;
21032;SDS011;10675;47.976;7.824;2023-11-19T04:01:40;0.63;;;0.63;;
21032;SDS011;10675;47.976;7.824;2023-11-19T04:04:06;0.50;;;0.50;;
21032;SDS011;10675;47.976;7.824;2023-11-19T04:06:31;0.60;;;0.60;;
21032;SDS011;10675;47.976;7.824;2023-11-19T04:08:57;0.60;;;0.60;;
21032;SDS011;10675;47.976;7.824;2023-11-19T04:11:22;1.90;;;0.70;;
21032;SDS011;10675;47.976;7.824;2023-11-19T04:13:48;0.57;;;0.57;;
21032;SDS011;10675;47.976;7.824;2023-11-19T04:16:14;0.60;;;0.60;;
21032;SDS011;10675;47.976;7.824;2023-11-19T04:18:39;0.60;;;0.40;;
21032;SDS011;10675;47.976;7.824;2023-11-19T04:21:06;0.50;;;0.50;;
21032;SDS011;10675;47.976;7.824;2023-11-19T04:23:32;0.67;;;0.40;;
21032;SDS011;10675;47.976;7.824;2023-11-19T04:25:57;0.30;;;0.30;;
21032;SDS011;10675;47.976;7.824;2023-11-19T04:28:23;0.50;;;0.40;;
21032;SDS011;10675;47.976;7.824;2023-11-19T04:30:52;1.30;;;0.43;;
21032;SDS011;10675;47.976;7.824;2023-11-19T04:33:17;0.40;;;0.40;;
21032;SDS011;10675;47.976;7.824;2023-11-19T04:35:43;0.30;;;0.30;;
21032;SDS011;10675;47.976;7.824;2023-11-19T04:38:08;0.50;;;0.50;;
21032;SDS011;10675;47.976;7.824;2023-11-19T04:40:34;0.37;;;0.37;;
21032;SDS011;10675;47.976;7.824;2023-11-19T04:42:59;0.30;;;0.30;;
21032;SDS011;10675;47.976;7.824;2023-11-19T04:45:25;0.23;;;0.23;;
21032;SDS011;10675;47.976;7.824;2023-11-19T04:47:51;0.50;;;0.40;;
21032;SDS011;10675;47.976;7.824;2023-11-19T04:50:16;0.20;;;0.20;;
21032;SDS011;10675;47.976;7.824;2023-11-19T04:52:42;0.20;;;0.20;;
21032;SDS011;10675;47.976;7.824;2023-11-19T04:55:10;1.20;;;0.37;;
21032;SDS011;10675;47.976;7.824;2023-11-19T04:57:37;0.40;;;0.30;;
21032;SDS011;10675;47.976;7.824;2023-11-19T05:00:03;0.30;;;0.30;;
21032;SDS011;10675;47.976;7.824;2023-11-19T05:02:30;0.93;;;0.40;;
21032;SDS011;10675;47.976;7.824;2023-11-19T05:04:55;0.40;;;0.40;;
21032;SDS011;10675;47.976;7.824;2023-11-19T05:07:22;0.30;;;0.30;;
21032;SDS011;10675;47.976;7.824;2023-11-19T05:09:47;0.30;;;0.30;;
21032;SDS011;10675;47.976;7.824;2023-11-19T05:12:13;0.20;;;0.20;;
21032;SDS011;10675;47.976;7.824;2023-11-19T05:14:38;0.40;;;0.40;;
21032;SDS011;10675;47.976;7.824;2023-11-19T05:17:04;0.30;;;0.30;;
21032;SDS011;10675;47.976;7.824;2023-11-19T05:19:29;0.30;;;0.30;;
21032;SDS011;10675;47.976;7.824;2023-11-19T05:21:55;0.30;;;0.30;;
21032;SDS011;10675;47.976;7.824;2023-11-19T05:24:20;0.50;;;0.43;;
21032;SDS011;10675;47.976;7.824;2023-11-19T05:26:46;0.23;;;0.23;;
21032;SDS011;10675;47.976;7.824;2023-11-19T05:29:12;0.30;;;0.30;;
21032;SDS011;10675;47.976;7.824;2023-11-19T05:31:37;0.30;;;0.30;;
21032;SDS011;10675;47.976;7.824;2023-11-19T05:34:03;0.27;;;0.27;;
21032;SDS011;10675;47.976;7.824;2023-11-19T05:36:29;0.20;;;0.20;;
21032;SDS011;10675;47.976;7.824;2023-11-19T05:38:54;0.57;;;0.30;;
21032;SDS011;10675;47.976;7.824;2023-11-19T05:41:20;1.10;;;0.30;;
21032;SDS011;10675;47.976;7.824;2023-11-19T05:43:45;0.17;;;0.17;;
21032;SDS011;10675;47.976;7.824;2023-11-19T05:46:11;3.50;;;0.30;;
21032;SDS011;10675;47.976;7.824;2023-11-19T05:48:38;0.20;;;0.20;;
21032;SDS011;10675;47.976;7.824;2023-11-19T05:51:04;0.37;;;0.37;;
21032;SDS011;10675;47.976;7.824;2023-11-19T05:53:30;0.10;;;0.10;;
21032;SDS011;10675;47.976;7.824;2023-11-19T05:55:56;0.30;;;0.30;;
21032;SDS011;10675;47.976;7.824;2023-11-19T05:58:25;0.20;;;0.20;;
21032;SDS011;10675;47.976;7.824;2023-11-19T06:00:53;0.30;;;0.30;;
21032;SDS011;10675;47.976;7.824;2023-11-19T06:03:22;0.40;;;0.40;;
21032;SDS011;10675;47.976;7.824;2023-11-19T06:05:48;0.30;;;0.27;;
21032;SDS011;10675;47.976;7.824;2023-11-19T06:08:14;0.23;;;0.23;;
21032;SDS011;10675;47.976;7.824;2023-11-19T06:10:40;1.43;;;0.30;;
21032;SDS011;10675;47.976;7.824;2023-11-19T06:13:06;0.30;;;0.30;;
21032;SDS011;10675;47.976;7.824;2023-11-19T06:15:32;0.20;;;0.20;;
21032;SDS011;10675;47.976;7.824;2023-11-19T06:17:58;0.30;;;0.30;;
21032;SDS011;10675;47.976;7.824;2023-11-19T06:20:28;0.97;;;0.40;;
21032;SDS011;10675;47.976;7.824;2023-11-19T06:22:54;0.50;;;0.50;;
21032;SDS011;10675;47.976;7.824;2023-11-19T06:25:21;0.20;;;0.20;;
21032;SDS011;10675;47.976;7.824;2023-11-19T06:27:48;0.20;;;0.20;;
21032;SDS011;10675;47.976;7.824;2023-11-19T06:30:14;0.20;;;0.20;;
21032;SDS011;10675;47.976;7.824;2023-11-19T06:32:40;0.30;;;0.30;;
21032;SDS011;10675;47.976;7.824;2023-11-19T06:35:05;0.57;;;0.30;;
21032;SDS011;10675;47.976;7.824;2023-11-19T06:37:31;0.20;;;0.20;;
21032;SDS011;10675;47.976;7.824;2023-11-19T06:39:57;0.30;;;0.30;;
21032;SDS011;10675;47.976;7.824;2023-11-19T06:42:22;0.40;;;0.40;;
21032;SDS011;10675;47.976;7.824;2023-11-19T06:44:48;0.77;;;0.43;;
21032;SDS011;10675;47.976;7.824;2023-11-19T06:47:13;0.67;;;0.40;;
21032;SDS011;10675;47.976;7.824;2023-11-19T06:49:39;2.20;;;0.40;;
21032;SDS011;10675;47.976;7.824;2023-11-19T06:52:04;0.30;;;0.30;;
21032;SDS011;10675;47.976;7.824;2023-11-19T06:54:30;0.30;;;0.30;;
21032;SDS011;10675;47.976;7.824;2023-11-19T06:56:56;0.30;;;0.30;;
21032;SDS011;10675;47.976;7.824;2023-11-19T06:59:22;0.60;;;0.50;;
21032;SDS011;10675;47.976;7.824;2023-11-19T07:01:48;0.30;;;0.30;;
21032;SDS011;10675;47.976;7.824;2023-11-19T07:04:13;0.30;;;0.30;;
21032;SDS011;10675;47.976;7.824;2023-11-19T07:06:39;0.20;;;0.20;;
21032;SDS011;10675;47.976;7.824;2023-11-19T07:09:08;0.30;;;0.30;;
21032;SDS011;10675;47.976;7.824;2023-11-19T07:11:37;0.30;;;0.30;;
21032;SDS011;10675;47.976;7.824;2023-11-19T07:14:04;0.43;;;0.40;;
21032;SDS011;10675;47.976;7.824;2023-11-19T07:16:31;0.20;;;0.20;;
21032;SDS011;10675;47.976;7.824;2023-11-19T07:19:02;0.87;;;0.50;;
21032;SDS011;10675;47.976;7.824;2023-11-19T07:21:28;0.40;;;0.40;;
21032;SDS011;10675;47.976;7.824;2023-11-19T07:23:54;0.40;;;0.40;;
21032;SDS011;10675;47.976;7.824;2023-11-19T07:26:20;0.30;;;0.30;;
21032;SDS011;10675;47.976;7.824;2023-11-19T07:28:46;0.77;;;0.40;;
21032;SDS011;10675;47.976;7.824;2023-11-19T07:31:12;0.30;;;0.30;;
21032;SDS011;10675;47.976;7.824;2023-11-19T07:33:39;0.33;;;0.33;;
21032;SDS011;10675;47.976;7.824;2023-11-19T07:36:07;0.50;;;0.50;;
21032;SDS011;10675;47.976;7.824;2023-11-19T07:38:33;0.40;;;0.40;;
21032;SDS011;10675;47.976;7.824;2023-11-19T07:40:59;0.40;;;0.40;;
21032;SDS011;10675;47.976;7.824;2023-11-19T07:43:25;0.40;;;0.40;;
21032;SDS011;10675;47.976;7.824;2023-11-19T07:45:50;0.30;;;0.30;;
21032;SDS011;10675;47.976;7.824;2023-11-19T07:48:16;0.40;;;0.40;;
21032;SDS011;10675;47.976;7.824;2023-11-19T07:50:43;0.30;;;0.30;;
21032;SDS011;10675;47.976;7.824;2023-11-19T07:53:08;0.30;;;0.30;;
21032;SDS011;10675;47.976;7.824;2023-11-19T07:55:34;0.33;;;0.33;;
21032;SDS011;10675;47.976;7.824;2023-11-19T07:57:59;1.33;;;0.40;;
21032;SDS011;10675;47.976;7.824;2023-11-19T08:00:26;0.63;;;0.30;;
21032;SDS011;10675;47.976;7.824;2023-11-19T08:02:51;0.47;;;0.47;;
21032;SDS011;10675;47.976;7.824;2023-11-19T08:05:17;1.73;;;0.60;;
21032;SDS011;10675;47.976;7.824;2023-11-19T08:07:42;0.63;;;0.63;;
21032;SDS011;10675;47.976;7.824;2023-11-19T08:10:08;0.27;;;0.27;;
21032;SDS011;10675;47.976;7.824;2023-11-19T08:12:37;0.40;;;0.40;;
21032;SDS011;10675;47.976;7.824;2023-11-19T08:15:03;1.23;;;0.80;;
21032;SDS011;10675;47.976;7.824;2023-11-19T08:17:29;0.47;;;0.47;;
21032;SDS011;10675;47.976;7.824;2023-11-19T08:19:55;0.50;;;0.50;;
21032;SDS011;10675;47.976;7.824;2023-11-19T08:22:21;0.50;;;0.50;;
21032;SDS011;10675;47.976;7.824;2023-11-19T08:24:47;0.40;;;0.40;;
21032;SDS011;10675;47.976;7.824;2023-11-19T08:27:13;0.60;;;0.60;;
21032;SDS011;10675;47.976;7.824;2023-11-19T08:29:39;1.53;;;0.50;;
21032;SDS011;10675;47.976;7.824;2023-11-19T08:32:05;0.20;;;0.20;;
21032;SDS011;10675;47.976;7.824;2023-11-19T08:34:31;0.40;;;0.40;;
21032;SDS011;10675;47.976;7.824;2023-11-19T08:36:57;2.13;;;0.30;;
21032;SDS011;10675;47.976;7.824;2023-11-19T08:39:24;0.73;;;0.40;;
21032;SDS011;10675;47.976;7.824;2023-11-19T08:41:50;0.50;;;0.50;;
21032;SDS011;10675;47.976;7.824;2023-11-19T08:44:16;0.97;;;0.50;;
21032;SDS011;10675;47.976;7.824;2023-11-19T08:46:48;0.67;;;0.40;;
21032;SDS011;10675;47.976;7.824;2023-11-19T08:49:14;0.50;;;0.50;;
21032;SDS011;10675;47.976;7.824;2023-11-19T08:51:40;1.07;;;0.50;;
21032;SDS011;10675;47.976;7.824;2023-11-19T08:54:06;1.40;;;0.50;;
21032;SDS011;10675;47.976;7.824;2023-11-19T08:56:32;0.53;;;0.53;;
21032;SDS011;10675;47.976;7.824;2023-11-19T08:58:59;0.50;;;0.50;;
21032;SDS011;10675;47.976;7.824;2023-11-19T09:01:25;0.77;;;0.60;;
21032;SDS011;10675;47.976;7.824;2023-11-19T09:03:50;0.57;;;0.40;;
21032;SDS011;10675;47.976;7.824;2023-11-19T09:06:17;3.33;;;0.53;;
21032;SDS011;10675;47.976;7.824;2023-11-19T09:08:42;0.50;;;0.50;;
21032;SDS011;10675;47.976;7.824;2023-11-19T09:11:08;0.87;;;0.60;;
21032;SDS011;10675;47.976;7.824;2023-11-19T09:13:34;0.27;;;0.27;;
21032;SDS011;10675;47.976;7.824;2023-11-19T09:16:00;0.60;;;0.60;;
21032;SDS011;10675;47.976;7.824;2023-11-19T09:18:29;1.33;;;0.60;;
21032;SDS011;10675;47.976;7.824;2023-11-19T09:20:55;1.30;;;0.70;;
21032;SDS011;10675;47.976;7.824;2023-11-19T09:23:21;0.50;;;0.50;;
21032;SDS011;10675;47.976;7.824;2023-11-19T09:25:46;0.93;;;0.40;;
21032;SDS011;10675;47.976;7.824;2023-11-19T09:28:12;0.40;;;0.40;;
21032;SDS011;10675;47.976;7.824;2023-11-19T09:30:39;3.03;;;0.67;;
21032;SDS011;10675;47.976;7.824;2023-11-19T09:33:04;1.33;;;0.70;;
21032;SDS011;10675;47.976;7.824;2023-11-19T09:35:30;1.07;;;0.60;;
21032;SDS011;10675;47.976;7.824;2023-11-19T09:37:56;0.40;;;0.40;;
21032;SDS011;10675;47.976;7.824;2023-11-19T09:40:21;2.00;;;0.50;;
21032;SDS011;10675;47.976;7.824;2023-11-19T09:42:47;0.40;;;0.40;;
21032;SDS011;10675;47.976;7.824;2023-11-19T09:45:14;2.00;;;0.50;;
21032;SDS011;10675;47.976;7.824;2023-11-19T09:47:43;0.57;;;0.57;;
21032;SDS011;10675;47.976;7.824;2023-11-19T09:50:12;0.83;;;0.60;;
21032;SDS011;10675;47.976;7.824;2023-11-19T09:52:41;0.73;;;0.53;;
21032;SDS011;10675;47.976;7.824;2023-11-19T09:55:07;1.03;;;0.53;;
21032;SDS011;10675;47.976;7.824;2023-11-19T09:57:33;0.40;;;0.40;;
21032;SDS011;10675;47.976;7.824;2023-11-19T10:00:02;0.90;;;0.60;;
21032;SDS011;10675;47.976;7.824;2023-11-19T10:02:30;0.60;;;0.60;;
21032;SDS011;10675;47.976;7.824;2023-11-19T10:04:58;0.47;;;0.47;;
21032;SDS011;10675;47.976;7.824;2023-11-19T10:07:27;0.90;;;0.70;;
21032;SDS011;10675;47.976;7.824;2023-11-19T10:09:53;0.50;;;0.50;;
21032;SDS011;10675;47.976;7.824;2023-11-19T10:12:19;0.70;;;0.70;;
21032;SDS011;10675;47.976;7.824;2023-11-19T10:14:44;0.87;;;0.70;;
21032;SDS011;10675;47.976;7.824;2023-11-19T10:17:11;0.80;;;0.80;;
21032;SDS011;10675;47.976;7.824;2023-11-19T10:19:36;0.50;;;0.50;;
21032;SDS011;10675;47.976;7.824;2023-11-19T10:22:05;1.73;;;0.50;;
21032;SDS011;10675;47.976;7.824;2023-11-19T10:24:31;4.47;;;1.73;;
21032;SDS011;10675;47.976;7.824;2023-11-19T10:26:58;0.30;;;0.30;;
21032;SDS011;10675;47.976;7.824;2023-11-19T10:29:24;0.30;;;0.30;;
21032;SDS011;10675;47.976;7.824;2023-11-19T10:31:56;0.40;;;0.40;;
21032;SDS011;10675;47.976;7.824;2023-11-19T10:34:26;0.60;;;0.30;;
21032;SDS011;10675;47.976;7.824;2023-11-19T10:36:52;0.30;;;0.30;;
21032;SDS011;10675;47.976;7.824;2023-11-19T10:39:17;1.00;;;0.40;;
21032;SDS011;10675;47.976;7.824;2023-11-19T10:41:43;0.50;;;0.50;;
21032;SDS011;10675;47.976;7.824;2023-11-19T10:44:09;0.87;;;0.53;;
21032;SDS011;10675;47.976;7.824;2023-11-19T10:46:36;1.13;;;0.40;;
21032;SDS011;10675;47.976;7.824;2023-11-19T10:49:05;0.60;;;0.57;;
21032;SDS011;10675;47.976;7.824;2023-11-19T10:51:34;0.77;;;0.30;;
21032;SDS011;10675;47.976;7.824;2023-11-19T10:54:03;0.40;;;0.40;;
21032;SDS011;10675;47.976;7.824;2023-11-19T10:56:33;0.73;;;0.50;;
21032;SDS011;10675;47.976;7.824;2023-11-19T10:58:59;0.40;;;0.40;;
21032;SDS011;10675;47.976;7.824;2023-11-19T11:01:34;0.37;;;0.37;;
21032;SDS011;10675;47.976;7.824;2023-11-19T11:04:12;0.40;;;0.40;;
21032;SDS011;10675;47.976;7.824;2023-11-19T11:06:40;0.40;;;0.40;;
21032;SDS011;10675;47.976;7.824;2023-11-19T11:09:06;0.50;;;0.50;;
21032;SDS011;10675;47.976;7.824;2023-11-19T11:11:37;0.30;;;0.30;;
21032;SDS011;10675;47.976;7.824;2023-11-19T11:14:03;0.83;;;0.50;;
21032;SDS011;10675;47.976;7.824;2023-11-19T11:16:30;0.47;;;0.47;;
21032;SDS011;10675;47.976;7.824;2023-11-19T11:18:56;0.80;;;0.60;;
21032;SDS011;10675;47.976;7.824;2023-11-19T11:21:23;0.23;;;0.23;;
21032;SDS011;10675;47.976;7.824;2023-11-19T11:29:47;0.23;;;0.23;;
21032;SDS011;10675;47.976;7.824;2023-11-19T11:32:54;0.50;;;0.50;;
21032;SDS011;10675;47.976;7.824;2023-11-19T11:35:40;0.87;;;0.50;;
21032;SDS011;10675;47.976;7.824;2023-11-19T11:38:23;1.27;;;0.70;;
21032;SDS011;10675;47.976;7.824;2023-11-19T11:43:44;0.67;;;0.60;;
21032;SDS011;10675;47.976;7.824;2023-11-19T11:49:00;0.50;;;0.40;;
21032;SDS011;10675;47.976;7.824;2023-11-19T11:54:26;1.73;;;0.97;;
21032;SDS011;10675;47.976;7.824;2023-11-19T12:02:10;1.77;;;0.60;;
21032;SDS011;10675;47.976;7.824;2023-11-19T12:04:39;1.10;;;0.63;;
21032;SDS011;10675;47.976;7.824;2023-11-19T12:07:05;1.90;;;0.50;;
21032;SDS011;10675;47.976;7.824;2023-11-19T12:09:33;0.97;;;0.60;;
21032;SDS011;10675;47.976;7.824;2023-11-19T12:22:28;3.60;;;0.60;;
21032;SDS011;10675;47.976;7.824;2023-11-19T12:24:54;0.70;;;0.70;;
21032;SDS011;10675;47.976;7.824;2023-11-19T12:27:20;0.70;;;0.60;;
21032;SDS011;10675;47.976;7.824;2023-11-19T12:29:48;0.60;;;0.60;;
21032;SDS011;10675;47.976;7.824;2023-11-19T12:32:14;0.80;;;0.80;;
21032;SDS011;10675;47.976;7.824;2023-11-19T12:34:40;0.60;;;0.60;;
21032;SDS011;10675;47.976;7.824;2023-11-19T12:37:05;0.53;;;0.53;;
21032;SDS011;10675;47.976;7.824;2023-11-19T12:39:31;0.63;;;0.63;;
21032;SDS011;10675;47.976;7.824;2023-11-19T12:41:57;0.70;;;0.70;;
21032;SDS011;10675;47.976;7.824;2023-11-19T12:44:26;0.60;;;0.60;;
21032;SDS011;10675;47.976;7.824;2023-11-19T12:47:02;1.30;;;0.87;;
21032;SDS011;10675;47.976;7.824;2023-11-19T12:49:32;0.53;;;0.53;;
21032;SDS011;10675;47.976;7.824;2023-11-19T12:51:59;1.77;;;0.70;;
21032;SDS011;10675;47.976;7.824;2023-11-19T12:54:37;1.63;;;0.77;;
21032;SDS011;10675;47.976;7.824;2023-11-19T12:57:03;1.30;;;0.80;;
21032;SDS011;10675;47.976;7.824;2023-11-19T12:59:30;0.60;;;0.60;;
21032;SDS011;10675;47.976;7.824;2023-11-19T13:01:56;0.70;;;0.70;;
21032;SDS011;10675;47.976;7.824;2023-11-19T13:04:28;0.70;;;0.70;;
21032;SDS011;10675;47.976;7.824;2023-11-19T13:06:58;0.70;;;0.70;;
21032;SDS011;10675;47.976;7.824;2023-11-19T13:09:27;2.30;;;0.80;;
21032;SDS011;10675;47.976;7.824;2023-11-19T13:11:54;1.13;;;0.90;;
21032;SDS011;10675;47.976;7.824;2023-11-19T13:14:21;1.30;;;1.20;;
21032;SDS011;10675;47.976;7.824;2023-11-19T13:16:47;1.60;;;1.17;;
21032;SDS011;10675;47.976;7.824;2023-11-19T13:19:13;0.80;;;0.80;;
21032;SDS011;10675;47.976;7.824;2023-11-19T13:21:41;1.67;;;1.30;;
21032;SDS011;10675;47.976;7.824;2023-11-19T13:24:07;2.80;;;1.30;;
21032;SDS011;10675;47.976;7.824;2023-11-19T13:26:33;1.60;;;1.00;;
21032;SDS011;10675;47.976;7.824;2023-11-19T13:28:58;1.10;;;1.03;;
21032;SDS011;10675;47.976;7.824;2023-11-19T13:31:24;4.13;;;1.40;;
21032;SDS011;10675;47.976;7.824;2023-11-19T13:33:50;1.40;;;0.73;;
21032;SDS011;10675;47.976;7.824;2023-11-19T13:36:16;0.60;;;0.60;;
21032;SDS011;10675;47.976;7.824;2023-11-19T13:38:42;1.33;;;1.03;;
21032;SDS011;10675;47.976;7.824;2023-11-19T13:41:09;0.87;;;0.87;;
21032;SDS011;10675;47.976;7.824;2023-11-19T13:43:36;1.23;;;1.13;;
21032;SDS011;10675;47.976;7.824;2023-11-19T13:46:02;1.83;;;0.80;;
21032;SDS011;10675;47.976;7.824;2023-11-19T13:48:27;2.93;;;1.07;;
21032;SDS011;10675;47.976;7.824;2023-11-19T13:50:55;2.07;;;1.13;;
21032;SDS011;10675;47.976;7.824;2023-11-19T13:53:21;1.67;;;1.10;;
21032;SDS011;10675;47.976;7.824;2023-11-19T13:55:48;2.13;;;1.20;;
21032;SDS011;10675;47.976;7.824;2023-11-19T13:58:14;1.50;;;1.10;;
21032;SDS011;10675;47.976;7.824;2023-11-19T14:00:40;1.03;;;0.97;;
21032;SDS011;10675;47.976;7.824;2023-11-19T14:03:08;2.23;;;1.10;;
21032;SDS011;10675;47.976;7.824;2023-11-19T14:05:35;1.10;;;0.63;;
21032;SDS011;10675;47.976;7.824;2023-11-19T14:08:00;1.77;;;1.00;;
21032;SDS011;10675;47.976;7.824;2023-11-19T14:10:26;1.47;;;0.90;;
21032;SDS011;10675;47.976;7.824;2023-11-19T14:12:52;0.87;;;0.87;;
21032;SDS011;10675;47.976;7.824;2023-11-19T14:15:17;0.57;;;0.57;;
21032;SDS011;10675;47.976;7.824;2023-11-19T14:17:43;1.57;;;0.73;;
21032;SDS011;10675;47.976;7.824;2023-11-19T14:20:09;1.00;;;1.00;;
21032;SDS011;10675;47.976;7.824;2023-11-19T14:22:41;1.73;;;0.90;;
21032;SDS011;10675;47.976;7.824;2023-11-19T14:25:08;1.03;;;0.90;;
21032;SDS011;10675;47.976;7.824;2023-11-19T14:27:38;2.97;;;0.80;;
21032;SDS011;10675;47.976;7.824;2023-11-19T14:30:05;1.33;;;1.13;;
21032;SDS011;10675;47.976;7.824;2023-11-19T14:32:31;0.90;;;0.90;;
21032;SDS011;10675;47.976;7.824;2023-11-19T14:34:57;1.30;;;0.80;;
21032;SDS011;10675;47.976;7.824;2023-11-19T14:37:23;0.90;;;0.90;;
21032;SDS011;10675;47.976;7.824;2023-11-19T14:39:48;1.70;;;1.10;;
21032;SDS011;10675;47.976;7.824;2023-11-19T14:42:15;0.97;;;0.87;;
21032;SDS011;10675;47.976;7.824;2023-11-19T14:44:42;1.03;;;0.93;;
21032;SDS011;10675;47.976;7.824;2023-11-19T14:47:07;4.70;;;1.13;;
21032;SDS011;10675;47.976;7.824;2023-11-19T14:49:34;0.93;;;0.83;;
21032;SDS011;10675;47.976;7.824;2023-11-19T14:52:00;2.27;;;1.07;;
21032;SDS011;10675;47.976;7.824;2023-11-19T14:54:25;2.20;;;1.03;;
21032;SDS011;10675;47.976;7.824;2023-11-19T14:56:51;1.27;;;0.80;;
21032;SDS011;10675;47.976;7.824;2023-11-19T14:59:17;0.90;;;0.90;;
21032;SDS011;10675;47.976;7.824;2023-11-19T15:01:44;1.67;;;0.90;;
21032;SDS011;10675;47.976;7.824;2023-11-19T15:04:10;1.43;;;0.83;;
21032;SDS011;10675;47.976;7.824;2023-11-19T15:06:36;0.80;;;0.70;;
21032;SDS011;10675;47.976;7.824;2023-11-19T15:09:02;1.97;;;0.80;;
21032;SDS011;10675;47.976;7.824;2023-11-19T15:11:28;1.20;;;0.70;;
21032;SDS011;10675;47.976;7.824;2023-11-19T15:13:53;0.50;;;0.50;;
21032;SDS011;10675;47.976;7.824;2023-11-19T15:16:19;1.27;;;0.83;;